sensor_id;sensor_type;location;lat;lon;timestamp;pressure;altitude;pressure_sealevel;temperature;humidity
69455;BME280;56660;51.986;5.930;2022-08-19T00:00:24;101351.06;;;21.16;68.00
69455;BME280;56660;51.986;5.930;2022-08-19T00:02:51;101342.06;;;21.16;68.10
69455;BME280;56660;51.986;5.930;2022-08-19T00:05:17;101340.38;;;21.15;68.39
69455;BME280;56660;51.986;5.930;2022-08-19T00:07:43;101334.94;;;21.15;68.32
69455;BME280;56660;51.986;5.930;2022-08-19T00:10:12;101348.94;;;21.12;68.83
69455;BME280;56660;51.986;5.930;2022-08-19T00:12:39;101333.22;;;21.07;68.77
69455;BME280;56660;51.986;5.930;2022-08-19T00:15:09;101340.53;;;21.07;68.96
69455;BME280;56660;51.986;5.930;2022-08-19T00:17:39;101340.75;;;21.05;68.93
69455;BME280;56660;51.986;5.930;2022-08-19T00:20:09;101350.59;;;21.06;69.03
69455;BME280;56660;51.986;5.930;2022-08-19T00:22:36;101345.53;;;21.03;69.13
69455;BME280;56660;51.986;5.930;2022-08-19T00:25:02;101346.78;;;21.01;69.33
69455;BME280;56660;51.986;5.930;2022-08-19T00:27:28;101337.59;;;21.02;69.34
69455;BME280;56660;51.986;5.930;2022-08-19T00:29:53;101336.31;;;20.98;69.49
69455;BME280;56660;51.986;5.930;2022-08-19T00:32:19;101330.25;;;20.96;69.57
69455;BME280;56660;51.986;5.930;2022-08-19T00:34:45;101327.72;;;20.94;69.62
69455;BME280;56660;51.986;5.930;2022-08-19T00:37:12;101323.31;;;20.93;69.47
69455;BME280;56660;51.986;5.930;2022-08-19T00:39:37;101326.44;;;20.90;69.83
69455;BME280;56660;51.986;5.930;2022-08-19T00:42:04;101323.69;;;20.83;69.64
69455;BME280;56660;51.986;5.930;2022-08-19T00:44:30;101332.06;;;20.82;70.12
69455;BME280;56660;51.986;5.930;2022-08-19T00:46:57;101329.53;;;20.80;70.14
69455;BME280;56660;51.986;5.930;2022-08-19T00:49:26;101333.94;;;20.81;70.24
69455;BME280;56660;51.986;5.930;2022-08-19T00:51:59;101338.69;;;20.79;70.02
69455;BME280;56660;51.986;5.930;2022-08-19T00:54:31;101341.63;;;20.78;70.04
69455;BME280;56660;51.986;5.930;2022-08-19T00:56:57;101348.50;;;20.74;70.20
69455;BME280;56660;51.986;5.930;2022-08-19T00:59:24;101347.84;;;20.72;70.13
69455;BME280;56660;51.986;5.930;2022-08-19T01:01:52;101341.97;;;20.68;70.23
69455;BME280;56660;51.986;5.930;2022-08-19T01:04:17;101339.66;;;20.65;70.10
69455;BME280;56660;51.986;5.930;2022-08-19T01:06:43;101346.31;;;20.63;70.09
69455;BME280;56660;51.986;5.930;2022-08-19T01:09:09;101338.38;;;20.61;70.37
69455;BME280;56660;51.986;5.930;2022-08-19T01:11:40;101345.88;;;20.59;70.42
69455;BME280;56660;51.986;5.930;2022-08-19T01:14:10;101346.09;;;20.58;70.69
69455;BME280;56660;51.986;5.930;2022-08-19T01:16:37;101340.22;;;20.54;70.73
69455;BME280;56660;51.986;5.930;2022-08-19T01:19:10;101339.56;;;20.52;70.85
69455;BME280;56660;51.986;5.930;2022-08-19T01:21:47;101344.75;;;20.47;71.09
69455;BME280;56660;51.986;5.930;2022-08-19T01:24:18;101346.81;;;20.45;71.14
69455;BME280;56660;51.986;5.930;2022-08-19T01:26:46;101346.19;;;20.43;71.18
69455;BME280;56660;51.986;5.930;2022-08-19T01:29:13;101351.81;;;20.41;71.00
69455;BME280;56660;51.986;5.930;2022-08-19T01:31:38;101350.97;;;20.41;71.08
69455;BME280;56660;51.986;5.930;2022-08-19T01:34:04;101354.88;;;20.38;71.18
69455;BME280;56660;51.986;5.930;2022-08-19T01:36:34;101355.09;;;20.37;71.01
69455;BME280;56660;51.986;5.930;2022-08-19T01:39:06;101346.94;;;20.37;71.04
69455;BME280;56660;51.986;5.930;2022-08-19T01:41:34;101342.53;;;20.36;71.16
69455;BME280;56660;51.986;5.930;2022-08-19T01:44:00;101339.19;;;20.34;71.13
69455;BME280;56660;51.986;5.930;2022-08-19T01:46:26;101335.03;;;20.38;71.36
69455;BME280;56660;51.986;5.930;2022-08-19T01:48:52;101342.63;;;20.42;71.37
69455;BME280;56660;51.986;5.930;2022-08-19T01:51:17;101350.19;;;20.47;71.28
69455;BME280;56660;51.986;5.930;2022-08-19T01:53:46;101351.47;;;20.51;71.18
69455;BME280;56660;51.986;5.930;2022-08-19T01:56:13;101352.94;;;20.53;71.34
69455;BME280;56660;51.986;5.930;2022-08-19T01:58:43;101347.13;;;20.57;70.97
69455;BME280;56660;51.986;5.930;2022-08-19T02:01:13;101346.69;;;20.53;70.93
69455;BME280;56660;51.986;5.930;2022-08-19T02:03:39;101343.91;;;20.46;71.04
69455;BME280;56660;51.986;5.930;2022-08-19T02:06:05;101353.53;;;20.49;71.09
69455;BME280;56660;51.986;5.930;2022-08-19T02:08:33;101355.22;;;20.50;71.10
69455;BME280;56660;51.986;5.930;2022-08-19T02:11:04;101362.97;;;20.53;70.81
69455;BME280;56660;51.986;5.930;2022-08-19T02:13:32;101362.97;;;20.53;70.80
69455;BME280;56660;51.986;5.930;2022-08-19T02:16:00;101368.84;;;20.57;70.96
69455;BME280;56660;51.986;5.930;2022-08-19T02:18:26;101364.91;;;20.59;71.08
69455;BME280;56660;51.986;5.930;2022-08-19T02:20:52;101361.16;;;20.60;70.85
69455;BME280;56660;51.986;5.930;2022-08-19T02:23:17;101354.69;;;20.61;70.47
69455;BME280;56660;51.986;5.930;2022-08-19T02:25:44;101349.25;;;20.61;70.69
69455;BME280;56660;51.986;5.930;2022-08-19T02:28:11;101353.59;;;20.55;70.45
69455;BME280;56660;51.986;5.930;2022-08-19T02:30:38;101361.09;;;20.53;70.52
69455;BME280;56660;51.986;5.930;2022-08-19T02:33:06;101366.09;;;20.50;70.69
69455;BME280;56660;51.986;5.930;2022-08-19T02:35:32;101368.16;;;20.48;70.66
69455;BME280;56660;51.986;5.930;2022-08-19T02:37:58;101369.78;;;20.42;70.59
69455;BME280;56660;51.986;5.930;2022-08-19T02:40:28;101359.31;;;20.39;70.75
69455;BME280;56660;51.986;5.930;2022-08-19T02:42:54;101364.28;;;20.36;70.71
69455;BME280;56660;51.986;5.930;2022-08-19T02:45:20;101351.72;;;20.35;70.51
69455;BME280;56660;51.986;5.930;2022-08-19T02:47:51;101357.56;;;20.32;70.91
69455;BME280;56660;51.986;5.930;2022-08-19T02:50:21;101358.34;;;20.26;71.04
69455;BME280;56660;51.986;5.930;2022-08-19T02:52:46;101357.69;;;20.23;71.01
69455;BME280;56660;51.986;5.930;2022-08-19T02:55:12;101357.06;;;20.21;70.91
69455;BME280;56660;51.986;5.930;2022-08-19T02:57:37;101360.16;;;20.18;70.73
69455;BME280;56660;51.986;5.930;2022-08-19T03:00:04;101361.59;;;20.14;70.81
69455;BME280;56660;51.986;5.930;2022-08-19T03:02:32;101364.69;;;20.11;71.01
69455;BME280;56660;51.986;5.930;2022-08-19T03:04:57;101359.06;;;20.13;71.01
69455;BME280;56660;51.986;5.930;2022-08-19T03:07:24;101361.53;;;20.08;70.97
69455;BME280;56660;51.986;5.930;2022-08-19T03:09:49;101362.75;;;20.05;70.83
69455;BME280;56660;51.986;5.930;2022-08-19T03:12:15;101362.31;;;20.02;70.98
69455;BME280;56660;51.986;5.930;2022-08-19T03:14:41;101361.41;;;19.95;71.07
69455;BME280;56660;51.986;5.930;2022-08-19T03:17:06;101366.00;;;19.94;70.92
69455;BME280;56660;51.986;5.930;2022-08-19T03:19:32;101360.31;;;19.89;70.78
69455;BME280;56660;51.986;5.930;2022-08-19T03:21:57;101360.03;;;19.84;71.09
69455;BME280;56660;51.986;5.930;2022-08-19T03:24:25;101360.44;;;19.81;70.83
69455;BME280;56660;51.986;5.930;2022-08-19T03:26:53;101360.81;;;19.78;71.04
69455;BME280;56660;51.986;5.930;2022-08-19T03:29:23;101366.81;;;19.73;71.20
69455;BME280;56660;51.986;5.930;2022-08-19T03:31:50;101370.75;;;19.71;70.94
69455;BME280;56660;51.986;5.930;2022-08-19T03:34:19;101368.81;;;19.65;71.23
69455;BME280;56660;51.986;5.930;2022-08-19T03:36:47;101373.97;;;19.59;71.10
69455;BME280;56660;51.986;5.930;2022-08-19T03:39:14;101371.44;;;19.58;71.14
69455;BME280;56660;51.986;5.930;2022-08-19T03:41:44;101373.50;;;19.56;71.43
69455;BME280;56660;51.986;5.930;2022-08-19T03:44:12;101368.28;;;19.54;71.39
69455;BME280;56660;51.986;5.930;2022-08-19T03:46:37;101368.28;;;19.54;71.78
69455;BME280;56660;51.986;5.930;2022-08-19T03:49:04;101369.66;;;19.50;71.57
69455;BME280;56660;51.986;5.930;2022-08-19T03:51:31;101369.84;;;19.49;71.54
69455;BME280;56660;51.986;5.930;2022-08-19T03:54:01;101379.22;;;19.46;71.45
69455;BME280;56660;51.986;5.930;2022-08-19T03:56:28;101364.53;;;19.41;71.13
69455;BME280;56660;51.986;5.930;2022-08-19T03:58:56;101373.25;;;19.36;71.36
69455;BME280;56660;51.986;5.930;2022-08-19T04:01:25;101372.78;;;19.33;71.50
69455;BME280;56660;51.986;5.930;2022-08-19T04:03:54;101366.06;;;19.28;71.44
69455;BME280;56660;51.986;5.930;2022-08-19T04:06:23;101366.91;;;19.29;71.54
69455;BME280;56660;51.986;5.930;2022-08-19T04:08:52;101376.06;;;19.28;71.65
69455;BME280;56660;51.986;5.930;2022-08-19T04:11:25;101376.06;;;19.28;71.51
69455;BME280;56660;51.986;5.930;2022-08-19T04:13:54;101368.31;;;19.25;71.63
69455;BME280;56660;51.986;5.930;2022-08-19T04:16:23;101365.97;;;19.22;71.59
69455;BME280;56660;51.986;5.930;2022-08-19T04:18:50;101371.41;;;19.22;71.87
69455;BME280;56660;51.986;5.930;2022-08-19T04:21:19;101367.84;;;19.21;71.86
69455;BME280;56660;51.986;5.930;2022-08-19T04:23:47;101378.03;;;19.19;71.89
69455;BME280;56660;51.986;5.930;2022-08-19T04:26:13;101371.78;;;19.19;72.19
69455;BME280;56660;51.986;5.930;2022-08-19T04:28:39;101351.78;;;19.20;72.22
69455;BME280;56660;51.986;5.930;2022-08-19T04:31:13;101349.25;;;19.18;71.92
69455;BME280;56660;51.986;5.930;2022-08-19T04:33:40;101347.75;;;19.16;71.93
69455;BME280;56660;51.986;5.930;2022-08-19T04:36:07;101347.09;;;19.14;71.98
69455;BME280;56660;51.986;5.930;2022-08-19T04:38:33;101345.59;;;19.11;71.98
69455;BME280;56660;51.986;5.930;2022-08-19T04:40:59;101352.25;;;19.09;71.96
69455;BME280;56660;51.986;5.930;2022-08-19T04:43:24;101345.53;;;19.05;71.94
69455;BME280;56660;51.986;5.930;2022-08-19T04:45:51;101351.13;;;19.03;71.84
69455;BME280;56660;51.986;5.930;2022-08-19T04:48:18;101337.13;;;19.00;72.14
69455;BME280;56660;51.986;5.930;2022-08-19T04:50:44;101351.50;;;19.00;72.08
69455;BME280;56660;51.986;5.930;2022-08-19T04:53:10;101348.97;;;18.99;72.11
69455;BME280;56660;51.986;5.930;2022-08-19T04:55:39;101344.78;;;18.96;72.10
69455;BME280;56660;51.986;5.930;2022-08-19T04:58:07;101344.13;;;18.94;71.97
69455;BME280;56660;51.986;5.930;2022-08-19T05:00:32;101357.50;;;18.95;72.09
69455;BME280;56660;51.986;5.930;2022-08-19T05:02:58;101351.41;;;18.93;72.10
69455;BME280;56660;51.986;5.930;2022-08-19T05:05:25;101360.19;;;18.95;72.07
69455;BME280;56660;51.986;5.930;2022-08-19T05:07:50;101351.41;;;18.93;71.81
69455;BME280;56660;51.986;5.930;2022-08-19T05:10:16;101361.41;;;18.93;72.14
69455;BME280;56660;51.986;5.930;2022-08-19T05:12:42;101351.78;;;18.90;72.07
69455;BME280;56660;51.986;5.930;2022-08-19T05:15:08;101355.72;;;18.88;72.26
69455;BME280;56660;51.986;5.930;2022-08-19T05:17:34;101357.59;;;18.87;72.35
69455;BME280;56660;51.986;5.930;2022-08-19T05:20:00;101355.53;;;18.89;72.46
69455;BME280;56660;51.986;5.930;2022-08-19T05:22:27;101359.53;;;18.93;72.39
69455;BME280;56660;51.986;5.930;2022-08-19T05:24:53;101359.81;;;18.99;72.22
69455;BME280;56660;51.986;5.930;2022-08-19T05:27:18;101361.31;;;19.01;72.40
69455;BME280;56660;51.986;5.930;2022-08-19T05:29:44;101370.56;;;19.07;72.53
69455;BME280;56660;51.986;5.930;2022-08-19T05:32:09;101366.44;;;19.11;72.38
69455;BME280;56660;51.986;5.930;2022-08-19T05:34:36;101365.03;;;19.15;72.74
69455;BME280;56660;51.986;5.930;2022-08-19T05:37:02;101362.69;;;19.26;72.67
69455;BME280;56660;51.986;5.930;2022-08-19T05:39:32;101362.78;;;19.33;72.57
69455;BME280;56660;51.986;5.930;2022-08-19T05:42:01;101358.28;;;19.40;72.71
69455;BME280;56660;51.986;5.930;2022-08-19T05:44:31;101358.66;;;19.52;72.70
69455;BME280;56660;51.986;5.930;2022-08-19T05:46:58;101362.28;;;19.59;72.57
69455;BME280;56660;51.986;5.930;2022-08-19T05:49:24;101367.41;;;19.69;72.48
69455;BME280;56660;51.986;5.930;2022-08-19T05:51:51;101377.09;;;19.78;72.79
69455;BME280;56660;51.986;5.930;2022-08-19T05:54:17;101368.44;;;19.89;72.66
69455;BME280;56660;51.986;5.930;2022-08-19T05:56:45;101368.97;;;19.99;72.68
69455;BME280;56660;51.986;5.930;2022-08-19T05:59:11;101360.88;;;20.06;72.30
69455;BME280;56660;51.986;5.930;2022-08-19T06:01:38;101358.94;;;20.21;72.55
69455;BME280;56660;51.986;5.930;2022-08-19T06:04:05;101369.72;;;20.36;72.69
69455;BME280;56660;51.986;5.930;2022-08-19T06:06:33;101364.81;;;20.46;72.79
69455;BME280;56660;51.986;5.930;2022-08-19T06:09:00;101366.78;;;20.59;72.81
69455;BME280;56660;51.986;5.930;2022-08-19T06:11:33;101369.16;;;20.68;72.90
69455;BME280;56660;51.986;5.930;2022-08-19T06:14:04;101369.63;;;20.78;72.73
69455;BME280;56660;51.986;5.930;2022-08-19T06:16:32;101372.22;;;20.86;72.91
69455;BME280;56660;51.986;5.930;2022-08-19T06:19:00;101371.03;;;20.96;72.83
69455;BME280;56660;51.986;5.930;2022-08-19T06:21:28;101371.69;;;21.04;72.80
69455;BME280;56660;51.986;5.930;2022-08-19T06:23:55;101375.69;;;21.08;72.70
69455;BME280;56660;51.986;5.930;2022-08-19T06:26:22;101375.53;;;21.16;72.78
69455;BME280;56660;51.986;5.930;2022-08-19T06:28:48;101382.06;;;21.22;72.57
69455;BME280;56660;51.986;5.930;2022-08-19T06:31:16;101376.66;;;21.29;72.80
69455;BME280;56660;51.986;5.930;2022-08-19T06:33:47;101370.63;;;21.40;72.69
69455;BME280;56660;51.986;5.930;2022-08-19T06:36:18;101371.72;;;21.52;72.59
69455;BME280;56660;51.986;5.930;2022-08-19T06:38:48;101374.06;;;21.62;72.16
69455;BME280;56660;51.986;5.930;2022-08-19T06:41:14;101378.50;;;21.76;72.29
69455;BME280;56660;51.986;5.930;2022-08-19T06:43:40;101367.59;;;21.76;71.84
69455;BME280;56660;51.986;5.930;2022-08-19T06:46:10;101374.56;;;21.92;72.00
69455;BME280;56660;51.986;5.930;2022-08-19T06:48:38;101374.56;;;21.98;71.34
69455;BME280;56660;51.986;5.930;2022-08-19T06:51:04;101379.63;;;22.08;71.30
69455;BME280;56660;51.986;5.930;2022-08-19T06:53:30;101384.03;;;22.16;71.19
69455;BME280;56660;51.986;5.930;2022-08-19T06:55:58;101371.06;;;22.18;71.07
69455;BME280;56660;51.986;5.930;2022-08-19T06:58:26;101373.56;;;22.19;71.19
69455;BME280;56660;51.986;5.930;2022-08-19T07:07:36;101372.94;;;22.17;70.75
69455;BME280;56660;51.986;5.930;2022-08-19T07:10:03;101380.47;;;22.22;70.78
69455;BME280;56660;51.986;5.930;2022-08-19T07:12:31;101380.06;;;22.25;70.87
69455;BME280;56660;51.986;5.930;2022-08-19T07:14:58;101375.66;;;22.24;70.59
69455;BME280;56660;51.986;5.930;2022-08-19T07:17:23;101395.38;;;22.32;70.52
69455;BME280;56660;51.986;5.930;2022-08-19T07:19:49;101400.59;;;22.34;70.25
69455;BME280;56660;51.986;5.930;2022-08-19T07:22:18;101396.41;;;22.31;70.23
69455;BME280;56660;51.986;5.930;2022-08-19T07:24:45;101393.28;;;22.28;70.19
69455;BME280;56660;51.986;5.930;2022-08-19T07:27:10;101394.94;;;22.29;70.35
69455;BME280;56660;51.986;5.930;2022-08-19T07:29:39;101403.75;;;22.37;70.23
69455;BME280;56660;51.986;5.930;2022-08-19T07:32:05;101415.06;;;22.41;70.15
69455;BME280;56660;51.986;5.930;2022-08-19T07:34:33;101406.06;;;22.47;69.98
69455;BME280;56660;51.986;5.930;2022-08-19T07:36:59;101406.47;;;22.51;70.13
69455;BME280;56660;51.986;5.930;2022-08-19T07:39:27;101397.25;;;22.52;69.83
69455;BME280;56660;51.986;5.930;2022-08-19T07:41:59;101414.22;;;22.60;69.99
69455;BME280;56660;51.986;5.930;2022-08-19T07:44:26;101410.03;;;22.64;69.28
69455;BME280;56660;51.986;5.930;2022-08-19T07:46:54;101415.06;;;22.67;69.31
69455;BME280;56660;51.986;5.930;2022-08-19T07:49:22;101415.06;;;22.74;68.90
69455;BME280;56660;51.986;5.930;2022-08-19T07:51:51;101414.63;;;22.77;68.95
69455;BME280;56660;51.986;5.930;2022-08-19T07:54:20;101414.63;;;22.77;68.88
69455;BME280;56660;51.986;5.930;2022-08-19T07:56:47;101422.59;;;22.78;68.53
69455;BME280;56660;51.986;5.930;2022-08-19T07:59:13;101435.63;;;22.90;68.73
69455;BME280;56660;51.986;5.930;2022-08-19T08:03:14;101420.09;;;22.97;68.22
69455;BME280;56660;51.986;5.930;2022-08-19T08:05:00;101436.41;;;23.23;67.96
69455;BME280;56660;51.986;5.930;2022-08-19T08:07:26;101426.28;;;23.37;67.86
69455;BME280;56660;51.986;5.930;2022-08-19T08:09:52;101424.84;;;23.41;67.12
69455;BME280;56660;51.986;5.930;2022-08-19T08:12:25;101426.50;;;23.42;67.56
69455;BME280;56660;51.986;5.930;2022-08-19T08:14:54;101422.91;;;23.48;67.56
69455;BME280;56660;51.986;5.930;2022-08-19T08:17:24;101425.84;;;23.53;67.16
69455;BME280;56660;51.986;5.930;2022-08-19T08:19:51;101431.47;;;23.65;67.79
69455;BME280;56660;51.986;5.930;2022-08-19T08:22:21;101423.84;;;23.80;67.38
69455;BME280;56660;51.986;5.930;2022-08-19T08:24:49;101432.16;;;23.98;66.13
69455;BME280;56660;51.986;5.930;2022-08-19T08:27:57;101446.16;;;24.09;66.41
69455;BME280;56660;51.986;5.930;2022-08-19T08:30:35;101451.84;;;24.07;65.14
69455;BME280;56660;51.986;5.930;2022-08-19T08:36:31;101455.25;;;24.02;65.03
69455;BME280;56660;51.986;5.930;2022-08-19T08:38:59;101446.66;;;23.99;64.91
69455;BME280;56660;51.986;5.930;2022-08-19T08:44:51;101450.22;;;23.99;64.22
69455;BME280;56660;51.986;5.930;2022-08-19T08:47:39;101454.81;;;24.05;64.14
69455;BME280;56660;51.986;5.930;2022-08-19T08:50:12;101454.16;;;24.10;62.84
69455;BME280;56660;51.986;5.930;2022-08-19T08:52:45;101450.53;;;24.16;63.68
69455;BME280;56660;51.986;5.930;2022-08-19T08:55:16;101449.84;;;24.27;63.37
69455;BME280;56660;51.986;5.930;2022-08-19T08:57:51;101458.84;;;24.34;62.31
69455;BME280;56660;51.986;5.930;2022-08-19T09:00:23;101450.59;;;24.41;61.96
69455;BME280;56660;51.986;5.930;2022-08-19T09:02:50;101454.13;;;24.48;61.92
69455;BME280;56660;51.986;5.930;2022-08-19T09:05:16;101436.44;;;24.51;61.95
69455;BME280;56660;51.986;5.930;2022-08-19T09:07:48;101440.78;;;24.58;61.73
69455;BME280;56660;51.986;5.930;2022-08-19T09:10:22;101444.69;;;24.69;61.57
69455;BME280;56660;51.986;5.930;2022-08-19T09:13:04;101438.09;;;24.77;61.05
69455;BME280;56660;51.986;5.930;2022-08-19T09:15:41;101440.56;;;24.85;61.21
69455;BME280;56660;51.986;5.930;2022-08-19T09:18:10;101435.19;;;24.96;61.00
69455;BME280;56660;51.986;5.930;2022-08-19T09:20:36;101430.13;;;25.00;60.79
69455;BME280;56660;51.986;5.930;2022-08-19T09:23:02;101434.41;;;25.14;60.94
69455;BME280;56660;51.986;5.930;2022-08-19T09:25:29;101434.69;;;25.24;60.65
69455;BME280;56660;51.986;5.930;2022-08-19T09:27:55;101436.31;;;25.32;60.05
69455;BME280;56660;51.986;5.930;2022-08-19T09:30:24;101442.06;;;25.42;60.46
69455;BME280;56660;51.986;5.930;2022-08-19T09:32:53;101439.41;;;25.54;60.18
69455;BME280;56660;51.986;5.930;2022-08-19T09:35:20;101442.63;;;25.69;59.32
69455;BME280;56660;51.986;5.930;2022-08-19T09:37:47;101425.50;;;25.74;58.94
69455;BME280;56660;51.986;5.930;2022-08-19T09:40:13;101449.59;;;25.83;58.76
69455;BME280;56660;51.986;5.930;2022-08-19T09:42:40;101445.78;;;25.84;59.62
69455;BME280;56660;51.986;5.930;2022-08-19T09:45:07;101446.06;;;25.94;58.97
69455;BME280;56660;51.986;5.930;2022-08-19T09:47:33;101445.84;;;25.96;58.84
69455;BME280;56660;51.986;5.930;2022-08-19T09:49:58;101449.41;;;25.96;59.31
69455;BME280;56660;51.986;5.930;2022-08-19T09:52:24;101448.56;;;25.96;59.36
69455;BME280;56660;51.986;5.930;2022-08-19T09:54:51;101465.84;;;25.96;59.31
69455;BME280;56660;51.986;5.930;2022-08-19T09:57:22;101451.19;;;25.91;58.76
69455;BME280;56660;51.986;5.930;2022-08-19T09:59:57;101454.28;;;25.94;58.93
69455;BME280;56660;51.986;5.930;2022-08-19T10:02:24;101464.72;;;25.86;59.10
69455;BME280;56660;51.986;5.930;2022-08-19T10:04:50;101462.00;;;25.86;58.80
69455;BME280;56660;51.986;5.930;2022-08-19T10:07:16;101465.94;;;25.90;57.83
69455;BME280;56660;51.986;5.930;2022-08-19T10:09:41;101467.63;;;25.91;58.96
69455;BME280;56660;51.986;5.930;2022-08-19T10:12:07;101468.13;;;26.00;58.54
69455;BME280;56660;51.986;5.930;2022-08-19T10:14:34;101462.22;;;26.03;58.39
69455;BME280;56660;51.986;5.930;2022-08-19T10:17:02;101472.03;;;26.10;57.82
69455;BME280;56660;51.986;5.930;2022-08-19T10:19:28;101462.72;;;26.11;56.86
69455;BME280;56660;51.986;5.930;2022-08-19T10:21:54;101456.78;;;26.14;57.18
69455;BME280;56660;51.986;5.930;2022-08-19T10:24:19;101468.34;;;26.16;57.13
69455;BME280;56660;51.986;5.930;2022-08-19T10:26:45;101455.38;;;26.23;56.84
69455;BME280;56660;51.986;5.930;2022-08-19T10:29:10;101454.84;;;26.33;56.69
69455;BME280;56660;51.986;5.930;2022-08-19T10:31:36;101456.66;;;26.39;56.78
69455;BME280;56660;51.986;5.930;2022-08-19T10:34:03;101454.63;;;26.46;55.63
69455;BME280;56660;51.986;5.930;2022-08-19T10:36:31;101461.31;;;26.50;54.83
69455;BME280;56660;51.986;5.930;2022-08-19T10:39:01;101450.34;;;26.50;54.77
69455;BME280;56660;51.986;5.930;2022-08-19T10:41:31;101453.31;;;26.49;54.43
69455;BME280;56660;51.986;5.930;2022-08-19T10:44:00;101451.53;;;26.54;54.50
69455;BME280;56660;51.986;5.930;2022-08-19T10:46:29;101447.84;;;26.61;54.59
69455;BME280;56660;51.986;5.930;2022-08-19T10:48:55;101453.69;;;26.64;54.63
69455;BME280;56660;51.986;5.930;2022-08-19T10:51:22;101451.31;;;26.68;54.84
69455;BME280;56660;51.986;5.930;2022-08-19T10:53:47;101457.53;;;26.75;55.30
69455;BME280;56660;51.986;5.930;2022-08-19T10:56:13;101458.38;;;26.87;54.61
69455;BME280;56660;51.986;5.930;2022-08-19T10:58:39;101453.00;;;26.92;54.11
69455;BME280;56660;51.986;5.930;2022-08-19T11:01:04;101451.25;;;26.98;54.40
69455;BME280;56660;51.986;5.930;2022-08-19T11:03:30;101452.91;;;27.10;54.29
69455;BME280;56660;51.986;5.930;2022-08-19T11:05:59;101452.66;;;27.23;54.02
69455;BME280;56660;51.986;5.930;2022-08-19T11:08:27;101446.06;;;27.36;53.33
69455;BME280;56660;51.986;5.930;2022-08-19T11:10:54;101458.00;;;27.42;52.60
69455;BME280;56660;51.986;5.930;2022-08-19T11:13:20;101458.13;;;27.35;52.42
69455;BME280;56660;51.986;5.930;2022-08-19T11:15:46;101445.97;;;27.31;53.17
69455;BME280;56660;51.986;5.930;2022-08-19T11:18:12;101441.53;;;27.42;53.39
69455;BME280;56660;51.986;5.930;2022-08-19T11:20:38;101429.56;;;27.48;52.30
69455;BME280;56660;51.986;5.930;2022-08-19T11:23:03;101444.34;;;27.70;52.35
69455;BME280;56660;51.986;5.930;2022-08-19T11:25:30;101441.66;;;27.87;51.85
69455;BME280;56660;51.986;5.930;2022-08-19T11:27:56;101437.53;;;28.01;51.58
69455;BME280;56660;51.986;5.930;2022-08-19T11:30:21;101441.25;;;28.24;51.74
69455;BME280;56660;51.986;5.930;2022-08-19T11:32:47;101439.84;;;28.38;51.01
69455;BME280;56660;51.986;5.930;2022-08-19T11:35:13;101445.19;;;28.44;50.72
69455;BME280;56660;51.986;5.930;2022-08-19T11:37:39;101448.72;;;28.57;51.47
69455;BME280;56660;51.986;5.930;2022-08-19T11:40:06;101445.56;;;28.65;50.00
69455;BME280;56660;51.986;5.930;2022-08-19T11:42:34;101437.06;;;28.66;50.34
69455;BME280;56660;51.986;5.930;2022-08-19T11:44:59;101431.16;;;28.91;50.02
69455;BME280;56660;51.986;5.930;2022-08-19T11:47:25;101434.66;;;29.25;48.83
69455;BME280;56660;51.986;5.930;2022-08-19T11:49:51;101421.56;;;29.54;48.81
69455;BME280;56660;51.986;5.930;2022-08-19T11:52:16;101427.94;;;29.82;47.55
69455;BME280;56660;51.986;5.930;2022-08-19T11:54:42;101434.00;;;30.05;47.67
69455;BME280;56660;51.986;5.930;2022-08-19T11:57:07;101424.03;;;30.31;47.74
69455;BME280;56660;51.986;5.930;2022-08-19T11:59:34;101429.22;;;30.55;46.31
69455;BME280;56660;51.986;5.930;2022-08-19T12:02:00;101413.94;;;30.74;46.11
69455;BME280;56660;51.986;5.930;2022-08-19T12:04:27;101428.41;;;30.91;45.24
69455;BME280;56660;51.986;5.930;2022-08-19T12:06:52;101423.53;;;31.09;45.23
69455;BME280;56660;51.986;5.930;2022-08-19T12:09:18;101413.19;;;31.26;45.00
69455;BME280;56660;51.986;5.930;2022-08-19T12:11:44;101423.75;;;31.44;44.22
69455;BME280;56660;51.986;5.930;2022-08-19T12:14:11;101417.19;;;31.65;43.89
69455;BME280;56660;51.986;5.930;2022-08-19T12:16:44;101422.28;;;31.94;42.58
69455;BME280;56660;51.986;5.930;2022-08-19T12:19:10;101425.06;;;32.04;41.62
69455;BME280;56660;51.986;5.930;2022-08-19T12:21:36;101426.47;;;32.17;42.41
69455;BME280;56660;51.986;5.930;2022-08-19T12:24:03;101411.56;;;32.33;42.98
69455;BME280;56660;51.986;5.930;2022-08-19T12:26:30;101423.47;;;32.54;42.92
69455;BME280;56660;51.986;5.930;2022-08-19T12:28:56;101415.69;;;32.71;41.67
69455;BME280;56660;51.986;5.930;2022-08-19T12:31:22;101412.91;;;32.76;40.79
69455;BME280;56660;51.986;5.930;2022-08-19T12:33:49;101416.53;;;32.87;41.31
69455;BME280;56660;51.986;5.930;2022-08-19T12:36:16;101412.88;;;33.07;41.46
69455;BME280;56660;51.986;5.930;2022-08-19T12:38:42;101404.75;;;33.25;40.03
69455;BME280;56660;51.986;5.930;2022-08-19T12:41:10;101399.22;;;33.31;40.42
69455;BME280;56660;51.986;5.930;2022-08-19T12:43:37;101406.69;;;33.40;39.76
69455;BME280;56660;51.986;5.930;2022-08-19T12:46:03;101412.41;;;33.59;40.41
69455;BME280;56660;51.986;5.930;2022-08-19T12:48:30;101407.34;;;33.81;39.97
69455;BME280;56660;51.986;5.930;2022-08-19T12:50:57;101405.38;;;33.87;39.30
69455;BME280;56660;51.986;5.930;2022-08-19T12:53:22;101405.94;;;33.74;39.46
69455;BME280;56660;51.986;5.930;2022-08-19T12:55:54;101407.34;;;33.81;39.04
69455;BME280;56660;51.986;5.930;2022-08-19T12:58:20;101400.06;;;33.91;39.87
69455;BME280;56660;51.986;5.930;2022-08-19T13:00:46;101391.34;;;34.07;38.80
69455;BME280;56660;51.986;5.930;2022-08-19T13:03:11;101399.81;;;34.26;39.10
69455;BME280;56660;51.986;5.930;2022-08-19T13:05:37;101393.31;;;34.41;37.80